Aviation Digital Data Service (ADDS)

Output produced by METARs form (0750 UTC 18 November 2018)
found at http://www.aviationweather.gov/metar/data/
 
METAR text: RJAF 180700Z VRB01KT 9999 FEW060 SCT130 BKN/// 12/04 Q1016
Conditions at: RJAF (MATSUMOTO AIRPOR, JP) observed 0700 UTC 18 November 2018
Temperature: 12.0°C (54°F)
Dewpoint: 4.0°C (39°F) [RH = 58%]
Pressure (altimeter): 30.00 inches Hg (1016.0 mb)
Winds: variable direction winds at 1 MPH (1 knots; 0.5 m/s)
Visibility: 6 or more miles (10+ km)
Ceiling: at least 12,000 feet AGL
Clouds: few clouds at 6000 feet AGL
scattered clouds at 13000 feet AGL
Weather: no significant weather observed at this time